Time;durP1;ratioP1;P1;durP2;ratioP2;P2;SDS_P1;SDS_P2;PMS_P1;PMS_P2;Temp;Humidity;BMP_temperature;BMP_pressure;BME280_temperature;BME280_humidity;BME280_pressure;Samples;Min_cycle;Max_cycle;Signal;HPM_P1;HPM_P2
2023/03/10 00:01:17;;;;;;;25.70;17.40;;;1.40;99.90;;;;;;5155074;27;19941;-69
2023/03/10 00:03:44;;;;;;;22.58;16.92;;;1.40;99.90;;;;;;5155138;27;20049;-69
2023/03/10 00:06:12;;;;;;;21.42;15.25;;;1.50;99.90;;;;;;5154982;27;20058;-71
2023/03/10 00:08:38;;;;;;;24.73;17.05;;;1.90;99.90;;;;;;5154618;27;20042;-68
2023/03/10 00:11:03;;;;;;;22.92;16.05;;;1.50;99.90;;;;;;5154114;27;20046;-69
2023/03/10 00:13:29;;;;;;;20.10;14.40;;;1.50;99.90;;;;;;5154407;27;20039;-68
2023/03/10 00:15:55;;;;;;;21.83;16.33;;;1.50;99.90;;;;;;5154271;27;20046;-72
2023/03/10 00:18:20;;;;;;;23.52;15.90;;;1.50;99.90;;;;;;5154253;27;20038;-69
2023/03/10 00:20:49;;;;;;;22.13;14.85;;;1.50;99.90;;;;;;5136380;27;20045;-68
2023/03/10 00:23:15;;;;;;;21.67;15.68;;;1.50;99.90;;;;;;5154655;27;20372;-72
2023/03/10 00:25:41;;;;;;;19.45;15.20;;;1.40;99.90;;;;;;5154228;27;20054;-68
2023/03/10 00:28:06;;;;;;;22.98;16.55;;;1.50;99.90;;;;;;5154301;27;20479;-71
2023/03/10 00:30:34;;;;;;;23.27;16.02;;;1.50;99.90;;;;;;5154043;27;20550;-69
2023/03/10 00:33:00;;;;;;;21.52;15.60;;;1.50;99.90;;;;;;5154049;27;20061;-69
2023/03/10 00:35:27;;;;;;;18.35;14.65;;;1.50;99.90;;;;;;5154504;27;20053;-68
2023/03/10 00:37:54;;;;;;;21.17;15.88;;;1.50;99.90;;;;;;5135467;27;20039;-68
2023/03/10 00:40:21;;;;;;;22.73;16.00;;;1.80;99.90;;;;;;5154142;27;20043;-68
2023/03/10 00:42:46;;;;;;;21.88;15.80;;;1.50;99.90;;;;;;5153938;27;20043;-68
2023/03/10 00:45:12;;;;;;;22.20;15.93;;;1.50;99.90;;;;;;5155042;27;20478;-71
2023/03/10 00:47:38;;;;;;;20.17;15.07;;;1.50;99.90;;;;;;5154719;27;20095;-71
2023/03/10 00:50:04;;;;;;;23.35;17.33;;;1.40;99.90;;;;;;5154816;27;20095;-68
2023/03/10 00:52:33;;;;;;;23.45;16.75;;;1.50;99.90;;;;;;5154953;27;20090;-71
2023/03/10 00:54:59;;;;;;;20.85;16.67;;;1.50;99.90;;;;;;5154617;27;20055;-67
2023/03/10 00:57:25;;;;;;;22.10;15.30;;;1.70;99.90;;;;;;5135168;27;20354;-69
2023/03/10 00:59:51;;;;;;;26.80;19.42;;;1.40;99.90;;;;;;5154083;27;20039;-69
2023/03/10 01:02:18;;;;;;;20.40;17.02;;;1.40;99.90;;;;;;5153723;27;20481;-68
2023/03/10 01:04:44;;;;;;;24.83;18.30;;;1.40;99.90;;;;;;5154255;27;20043;-72
2023/03/10 01:07:09;;;;;;;23.13;18.45;;;1.50;99.90;;;;;;5154029;27;20051;-72
2023/03/10 01:09:35;;;;;;;25.75;18.33;;;0.20;99.90;;;;;;5153443;27;20508;-70
2023/03/10 01:12:01;;;;;;;26.95;17.98;;;1.40;99.90;;;;;;5154069;27;20057;-69
2023/03/10 01:14:26;;;;;;;27.25;19.63;;;1.80;99.90;;;;;;5135272;27;20122;-69
2023/03/10 01:16:52;;;;;;;26.15;18.67;;;1.40;99.90;;;;;;5154053;27;20040;-72
2023/03/10 01:19:18;;;;;;;29.50;19.77;;;1.40;99.90;;;;;;5153784;27;20122;-69
2023/03/10 01:21:43;;;;;;;28.95;19.27;;;1.50;99.90;;;;;;5135166;27;20103;-70
2023/03/10 01:24:14;;;;;;;34.65;23.08;;;1.50;99.90;;;;;;5135560;27;20046;-71
2023/03/10 01:26:40;;;;;;;33.78;23.38;;;1.50;99.90;;;;;;5135127;27;20486;-71
2023/03/10 01:29:05;;;;;;;27.63;20.50;;;1.50;99.90;;;;;;5153908;27;20039;-70
2023/03/10 01:31:31;;;;;;;27.05;20.60;;;1.50;99.90;;;;;;5153591;27;20065;-70
2023/03/10 01:33:57;;;;;;;32.38;21.55;;;1.50;99.90;;;;;;5153475;27;20054;-70
2023/03/10 01:36:25;;;;;;;27.63;19.65;;;1.50;99.90;;;;;;5153513;27;20375;-70
2023/03/10 01:38:52;;;;;;;28.77;20.38;;;1.50;99.90;;;;;;5153331;27;20074;-70
2023/03/10 01:41:19;;;;;;;24.52;19.92;;;1.60;99.90;;;;;;5153221;27;20509;-69
2023/03/10 01:43:47;;;;;;;29.48;19.90;;;1.60;99.90;;;;;;5153210;27;20049;-69
2023/03/10 01:46:36;;;;;;;25.65;19.02;;;1.50;99.90;;;;;;5153322;27;20039;-69
2023/03/10 01:49:06;;;;;;;23.33;18.30;;;1.80;99.90;;;;;;5155669;27;20129;-69
2023/03/10 01:51:34;;;;;;;27.40;20.10;;;1.50;99.90;;;;;;5157493;27;20079;-69
2023/03/10 01:54:02;;;;;;;30.52;20.15;;;1.60;99.90;;;;;;5157325;27;20130;-71
2023/03/10 01:56:29;;;;;;;26.55;18.88;;;1.60;99.90;;;;;;5157072;27;20054;-69
2023/03/10 01:58:55;;;;;;;24.80;20.50;;;1.60;99.90;;;;;;5121456;27;20035;-71
2023/03/10 02:01:21;;;;;;;25.67;19.95;;;1.60;99.90;;;;;;5121435;27;20042;-69
2023/03/10 02:03:59;;;;;;;27.40;19.85;;;1.60;99.90;;;;;;5138317;27;20556;-69
2023/03/10 02:06:25;;;;;;;27.25;19.95;;;1.60;99.90;;;;;;5139398;27;20085;-69
2023/03/10 02:08:55;;;;;;;26.45;20.00;;;1.60;99.90;;;;;;5156911;27;20046;-69
2023/03/10 02:11:21;;;;;;;29.00;20.65;;;2.00;99.90;;;;;;5138757;27;20062;-70
2023/03/10 02:13:47;;;;;;;26.67;20.63;;;1.60;99.90;;;;;;5156924;27;20042;-70
2023/03/10 02:16:13;;;;;;;25.33;19.02;;;1.60;99.90;;;;;;5138111;27;20038;-75
2023/03/10 02:18:41;;;;;;;28.63;18.05;;;1.60;99.90;;;;;;5121718;27;20462;-75
2023/03/10 02:21:21;;;;;;;24.20;19.20;;;1.60;99.90;;;;;;5156680;27;20055;-76
2023/03/10 02:23:50;;;;;;;22.40;16.80;;;1.60;99.90;;;;;;5138615;27;20058;-76
2023/03/10 02:26:30;;;;;;;21.70;15.85;;;1.60;99.90;;;;;;5156086;27;20415;-76
2023/03/10 02:29:00;;;;;;;19.75;15.23;;;1.60;99.90;;;;;;5156715;27;20081;-76
2023/03/10 02:31:27;;;;;;;19.60;15.70;;;1.60;99.90;;;;;;5156799;27;20186;-76
2023/03/10 02:33:54;;;;;;;17.48;14.40;;;1.60;99.90;;;;;;5121580;27;20133;-76
2023/03/10 02:36:22;;;;;;;20.45;13.77;;;2.20;99.90;;;;;;5156379;27;20047;-76
2023/03/10 02:38:48;;;;;;;15.77;13.25;;;1.60;99.90;;;;;;5156284;27;20115;-77
2023/03/10 02:41:25;;;;;;;16.45;13.80;;;1.50;99.90;;;;;;5156260;27;20156;-76
2023/03/10 02:43:53;;;;;;;16.60;13.35;;;1.50;99.90;;;;;;5156285;27;20175;-76
2023/03/10 02:46:20;;;;;;;16.90;14.32;;;1.50;99.90;;;;;;5156188;27;20122;-76
2023/03/10 02:48:46;;;;;;;22.55;15.65;;;1.50;99.90;;;;;;5156757;27;20042;-77
2023/03/10 02:51:16;;;;;;;20.17;14.63;;;1.60;99.90;;;;;;5156443;27;20046;-76
2023/03/10 02:53:44;;;;;;;17.33;13.82;;;1.60;99.90;;;;;;5137567;27;20129;-77
2023/03/10 02:56:10;;;;;;;19.67;14.57;;;2.80;99.90;;;;;;5156040;27;20131;-77
2023/03/10 02:58:36;;;;;;;19.40;13.75;;;1.70;99.90;;;;;;5156001;27;20126;-76
2023/03/10 03:01:03;;;;;;;14.70;13.00;;;1.50;99.90;;;;;;5155865;27;20447;-77
2023/03/10 03:03:29;;;;;;;18.88;14.00;;;1.50;99.90;;;;;;5155978;27;20046;-77
2023/03/10 03:05:55;;;;;;;17.52;14.18;;;1.50;99.90;;;;;;5120553;27;20050;-76
2023/03/10 03:08:22;;;;;;;19.92;14.82;;;1.60;99.90;;;;;;5156486;27;20049;-76
2023/03/10 03:10:48;;;;;;;19.67;14.20;;;1.50;99.90;;;;;;5137667;27;20042;-77
2023/03/10 03:13:14;;;;;;;17.05;13.27;;;1.50;99.90;;;;;;5138071;27;20045;-76
2023/03/10 03:15:40;;;;;;;19.50;13.98;;;1.60;99.90;;;;;;5156053;27;20546;-76
2023/03/10 03:18:06;;;;;;;22.38;13.80;;;1.50;99.90;;;;;;5155822;27;20456;-76
2023/03/10 03:20:32;;;;;;;20.75;14.98;;;1.50;99.90;;;;;;5155726;27;20047;-76
2023/03/10 03:22:58;;;;;;;21.25;15.18;;;1.50;99.90;;;;;;5155548;27;20038;-76
2023/03/10 03:25:27;;;;;;;22.63;15.25;;;1.70;99.90;;;;;;5155502;27;20070;-76
2023/03/10 03:27:53;;;;;;;19.02;15.38;;;1.50;99.90;;;;;;5155871;27;20053;-75
2023/03/10 03:30:22;;;;;;;19.10;15.55;;;1.80;99.90;;;;;;5155408;27;20090;-76
2023/03/10 03:32:48;;;;;;;20.92;15.32;;;1.60;99.90;;;;;;5137276;27;20502;-76
2023/03/10 03:35:20;;;;;;;20.05;15.30;;;1.60;99.90;;;;;;5155369;27;20089;-76
2023/03/10 03:37:45;;;;;;;22.15;14.57;;;1.60;99.90;;;;;;5155379;27;20039;-76
2023/03/10 03:40:12;;;;;;;22.05;16.25;;;2.20;99.90;;;;;;5155327;27;20065;-77
2023/03/10 03:42:42;;;;;;;20.65;15.60;;;1.60;99.90;;;;;;5155603;27;20094;-76
2023/03/10 03:45:09;;;;;;;18.88;15.13;;;2.00;99.90;;;;;;5137521;27;20042;-76
2023/03/10 03:47:35;;;;;;;19.55;14.57;;;1.60;99.90;;;;;;5155716;27;20039;-76
2023/03/10 03:50:02;;;;;;;21.25;16.10;;;1.70;99.90;;;;;;5154884;27;20482;-76
2023/03/10 03:52:28;;;;;;;22.05;15.73;;;2.00;99.90;;;;;;5154992;27;20057;-76
2023/03/10 03:54:53;;;;;;;23.60;17.25;;;1.60;99.90;;;;;;5155114;27;20121;-77
2023/03/10 03:57:19;;;;;;;23.75;16.33;;;1.60;99.90;;;;;;5155088;27;20054;-76
2023/03/10 03:59:45;;;;;;;24.50;15.35;;;2.40;99.90;;;;;;5154759;27;20031;-76
2023/03/10 04:02:11;;;;;;;22.35;16.30;;;2.90;99.90;;;;;;5155506;27;20102;-76
2023/03/10 04:04:36;;;;;;;25.15;17.70;;;1.60;99.90;;;;;;5155423;27;20459;-76
2023/03/10 04:07:02;;;;;;;25.58;17.63;;;1.60;99.90;;;;;;5155795;27;20050;-76
2023/03/10 04:09:28;;;;;;;26.38;17.90;;;1.60;99.90;;;;;;5136941;27;20587;-75
2023/03/10 04:11:54;;;;;;;25.67;17.95;;;1.60;99.90;;;;;;5154454;27;20065;-76
2023/03/10 04:14:20;;;;;;;31.77;20.73;;;1.70;99.90;;;;;;5136282;27;20065;-76
2023/03/10 04:16:46;;;;;;;29.20;20.98;;;2.30;99.90;;;;;;5136252;27;20444;-76
2023/03/10 04:19:13;;;;;;;34.20;21.90;;;2.40;99.90;;;;;;5154475;27;20122;-75
2023/03/10 04:21:39;;;;;;;29.10;21.80;;;1.50;99.90;;;;;;5154869;27;20093;-76
2023/03/10 04:24:05;;;;;;;28.75;21.88;;;2.30;99.90;;;;;;5154127;27;20531;-76
2023/03/10 04:26:31;;;;;;;33.95;23.02;;;1.50;99.90;;;;;;5154648;27;20085;-76
2023/03/10 04:28:58;;;;;;;31.38;22.40;;;2.60;99.90;;;;;;5154997;27;20038;-76
2023/03/10 04:31:24;;;;;;;29.73;22.63;;;2.30;99.90;;;;;;5154321;27;20053;-76
2023/03/10 04:33:50;;;;;;;34.95;24.35;;;1.50;99.90;;;;;;5154228;27;20111;-76
2023/03/10 04:36:17;;;;;;;37.85;23.73;;;2.30;99.90;;;;;;5154311;27;20043;-76
2023/03/10 04:38:43;;;;;;;34.38;24.73;;;1.50;99.90;;;;;;5154696;27;20055;-77
2023/03/10 04:41:08;;;;;;;34.78;23.98;;;1.50;99.90;;;;;;5153984;27;20053;-76
2023/03/10 04:43:35;;;;;;;34.72;24.35;;;1.50;99.90;;;;;;5154232;27;20046;-76
2023/03/10 04:46:01;;;;;;;36.95;24.75;;;1.50;99.90;;;;;;5154237;27;20039;-75
2023/03/10 04:48:28;;;;;;;36.83;25.05;;;2.10;99.90;;;;;;5154267;27;20072;-76
2023/03/10 04:50:58;;;;;;;35.40;24.52;;;1.40;99.90;;;;;;5154230;27;20042;-76
2023/03/10 04:53:24;;;;;;;37.95;27.38;;;2.20;99.90;;;;;;5154184;27;20064;-76
2023/03/10 04:55:50;;;;;;;35.83;25.88;;;1.40;99.90;;;;;;5154138;27;20222;-76
2023/03/10 04:58:20;;;;;;;34.33;26.00;;;1.50;99.90;;;;;;5154274;27;20047;-75
2023/03/10 05:00:47;;;;;;;46.58;29.45;;;2.70;99.90;;;;;;5153949;27;20131;-76
2023/03/10 05:03:13;;;;;;;40.03;27.25;;;1.40;99.90;;;;;;5154098;27;20053;-76
2023/03/10 05:05:39;;;;;;;35.53;26.10;;;1.40;99.90;;;;;;5154409;27;20062;-76
2023/03/10 05:08:05;;;;;;;34.00;26.27;;;1.80;99.90;;;;;;5154220;27;20039;-76
2023/03/10 05:10:31;;;;;;;37.40;26.45;;;2.50;99.90;;;;;;5135833;27;20047;-76
2023/03/10 05:12:57;;;;;;;41.35;28.20;;;1.30;99.90;;;;;;5136286;27;20046;-76
2023/03/10 05:15:23;;;;;;;39.08;26.33;;;1.30;99.90;;;;;;5153947;27;20042;-75
2023/03/10 05:17:48;;;;;;;45.67;32.15;;;1.60;99.90;;;;;;5153915;27;20089;-75
2023/03/10 05:20:14;;;;;;;41.40;28.80;;;1.30;99.90;;;;;;5135924;27;20084;-75
2023/03/10 05:22:40;;;;;;;43.88;33.15;;;1.30;99.90;;;;;;5135894;27;20498;-75
2023/03/10 05:25:08;;;;;;;78.10;40.25;;;1.30;99.90;;;;;;5158279;27;20070;-75
2023/03/10 05:27:35;;;;;;;49.80;36.22;;;1.30;99.90;;;;;;5139312;27;20121;-75
2023/03/10 05:30:05;;;;;;;53.70;32.58;;;2.40;99.90;;;;;;5139150;27;20121;-75
2023/03/10 05:32:34;;;;;;;55.20;36.58;;;1.30;99.90;;;;;;5157764;27;20051;-75
2023/03/10 05:35:00;;;;;;;62.10;39.00;;;1.70;99.90;;;;;;5139151;27;20078;-75
2023/03/10 05:37:26;;;;;;;58.85;38.10;;;1.30;99.90;;;;;;5157843;27;20142;-75
2023/03/10 05:39:51;;;;;;;59.38;43.28;;;1.30;99.90;;;;;;5157191;27;20043;-75
2023/03/10 05:42:18;;;;;;;60.08;41.97;;;1.30;99.90;;;;;;5157421;27;20046;-75
2023/03/10 05:44:44;;;;;;;69.80;45.80;;;1.30;99.90;;;;;;5138954;27;20106;-75
2023/03/10 05:47:09;;;;;;;60.72;42.72;;;1.30;99.90;;;;;;5139066;27;20054;-75
2023/03/10 05:49:35;;;;;;;71.65;44.92;;;1.30;99.90;;;;;;5157344;27;20520;-75
2023/03/10 05:52:01;;;;;;;68.63;44.20;;;1.30;99.90;;;;;;5157298;27;20095;-75
2023/03/10 05:54:27;;;;;;;66.63;43.50;;;1.30;99.90;;;;;;5157716;27;20126;-75
2023/03/10 05:56:52;;;;;;;69.40;45.15;;;1.60;99.90;;;;;;5157758;27;20050;-75
2023/03/10 05:59:18;;;;;;;66.82;46.10;;;1.30;99.90;;;;;;5139210;27;20519;-75
2023/03/10 06:01:44;;;;;;;63.78;41.97;;;1.30;99.90;;;;;;5139083;27;20076;-75
2023/03/10 06:04:09;;;;;;;65.90;45.08;;;1.30;99.90;;;;;;5139324;27;20121;-74
2023/03/10 06:06:35;;;;;;;56.58;39.10;;;1.30;99.90;;;;;;5157194;27;20495;-74
2023/03/10 06:09:01;;;;;;;62.85;41.08;;;1.30;99.90;;;;;;5157282;27;20062;-74
2023/03/10 06:11:27;;;;;;;53.88;36.55;;;1.30;99.90;;;;;;5138509;27;20043;-74
2023/03/10 06:13:53;;;;;;;49.83;33.90;;;1.30;99.90;;;;;;5156775;27;20054;-74
2023/03/10 06:16:18;;;;;;;49.35;34.28;;;2.20;99.90;;;;;;5121541;27;20086;-74
2023/03/10 06:18:44;;;;;;;51.90;33.60;;;1.30;99.90;;;;;;5156566;27;20103;-73
2023/03/10 06:21:13;;;;;;;50.13;35.22;;;2.00;99.90;;;;;;5156977;27;20125;-74
2023/03/10 06:23:38;;;;;;;34.72;27.15;;;1.30;99.90;;;;;;5156522;27;20113;-74
2023/03/10 06:26:07;;;;;;;53.25;33.83;;;1.20;99.90;;;;;;5156690;27;20081;-74
2023/03/10 06:28:35;;;;;;;47.03;32.50;;;1.30;99.90;;;;;;5157030;27;20077;-73
2023/03/10 06:31:04;;;;;;;50.60;33.42;;;1.60;99.90;;;;;;5137781;27;20094;-73
2023/03/10 06:33:30;;;;;;;54.92;34.40;;;1.20;99.90;;;;;;5156533;27;20043;-74
2023/03/10 06:35:57;;;;;;;46.80;33.72;;;1.30;99.90;;;;;;5138022;27;20053;-73
2023/03/10 06:38:23;;;;;;;54.60;35.22;;;1.90;99.90;;;;;;5156203;27;20053;-71
2023/03/10 06:40:49;;;;;;;44.33;28.10;;;1.50;99.90;;;;;;5156060;27;20078;-71
2023/03/10 06:43:15;;;;;;;35.15;26.52;;;1.20;99.90;;;;;;5156052;27;20042;-72
2023/03/10 06:45:43;;;;;;;42.88;29.33;;;1.20;99.90;;;;;;5155961;27;20039;-72
2023/03/10 06:48:09;;;;;;;45.45;27.08;;;1.30;99.90;;;;;;5156475;27;20038;-72
2023/03/10 06:50:35;;;;;;;40.60;26.35;;;1.30;99.90;;;;;;5137897;27;20118;-73
2023/03/10 06:53:00;;;;;;;39.20;25.20;;;2.20;99.90;;;;;;5137586;27;20063;-73
2023/03/10 06:55:26;;;;;;;39.22;26.15;;;1.30;99.90;;;;;;5155823;27;20463;-72
2023/03/10 06:57:52;;;;;;;34.83;24.45;;;2.00;99.90;;;;;;5120578;27;20043;-72
2023/03/10 07:00:18;;;;;;;44.05;25.02;;;1.90;99.90;;;;;;5155616;27;20043;-72
2023/03/10 07:02:44;;;;;;;30.88;21.92;;;1.40;99.90;;;;;;5136994;27;20074;-72
2023/03/10 07:05:12;;;;;;;57.78;29.17;;;1.40;99.90;;;;;;5155894;27;20050;-74
2023/03/10 07:07:37;;;;;;;31.10;21.35;;;1.40;99.90;;;;;;5137719;27;20050;-71
2023/03/10 07:10:04;;;;;;;28.25;21.20;;;1.40;99.90;;;;;;5156033;27;20180;-71
2023/03/10 07:12:30;;;;;;;30.33;19.35;;;1.40;99.90;;;;;;5137643;27;20045;-74
2023/03/10 07:14:56;;;;;;;31.05;21.20;;;1.70;99.90;;;;;;5155334;27;20042;-73
2023/03/10 07:17:21;;;;;;;29.50;20.95;;;2.60;99.90;;;;;;5155421;27;20099;-73
2023/03/10 07:19:47;;;;;;;27.50;20.02;;;1.50;99.90;;;;;;5155385;27;20054;-75
2023/03/10 07:22:13;;;;;;;29.85;21.15;;;1.90;99.90;;;;;;5155437;27;20117;-72
2023/03/10 07:24:38;;;;;;;29.05;19.52;;;1.50;99.90;;;;;;5137619;27;20042;-74
2023/03/10 07:27:05;;;;;;;28.83;21.38;;;2.90;99.90;;;;;;5136980;27;20038;-74
2023/03/10 07:29:30;;;;;;;32.20;21.95;;;1.50;99.90;;;;;;5155954;27;20042;-75
2023/03/10 07:31:56;;;;;;;30.95;21.38;;;2.90;99.90;;;;;;5137435;27;20053;-75
2023/03/10 07:34:22;;;;;;;34.13;22.48;;;1.50;99.90;;;;;;5155498;27;20483;-74
2023/03/10 07:36:48;;;;;;;31.63;21.40;;;2.10;99.90;;;;;;5155072;27;20046;-74
2023/03/10 07:39:14;;;;;;;29.80;20.33;;;2.10;99.90;;;;;;5137047;27;20046;-75
2023/03/10 07:41:40;;;;;;;29.20;19.83;;;1.50;99.90;;;;;;5154855;27;20049;-75
2023/03/10 07:44:05;;;;;;;33.05;21.23;;;1.60;99.90;;;;;;5155490;27;20051;-75
2023/03/10 07:46:32;;;;;;;29.90;21.42;;;1.80;99.90;;;;;;5154460;27;20047;-75
2023/03/10 07:49:02;;;;;;;32.10;22.13;;;1.60;99.90;;;;;;5154730;27;20489;-75
2023/03/10 07:51:29;;;;;;;31.80;22.05;;;1.60;99.90;;;;;;5154479;27;20054;-74
2023/03/10 07:53:54;;;;;;;29.27;20.02;;;1.60;99.90;;;;;;5154552;27;20047;-74
2023/03/10 07:56:20;;;;;;;28.50;20.17;;;1.60;99.90;;;;;;5154732;27;20099;-75
2023/03/10 07:58:46;;;;;;;28.65;20.63;;;1.70;99.90;;;;;;5136872;27;20122;-75
2023/03/10 08:01:17;;;;;;;31.90;21.42;;;1.70;99.90;;;;;;5154553;27;20121;-74
2023/03/10 08:03:44;;;;;;;29.02;20.67;;;2.30;99.90;;;;;;5154498;27;20150;-74
2023/03/10 08:06:19;;;;;;;25.02;18.77;;;1.60;99.90;;;;;;5154520;27;20451;-75
2023/03/10 08:08:45;;;;;;;27.45;18.08;;;1.70;99.90;;;;;;5154931;27;20039;-76
2023/03/10 08:11:11;;;;;;;26.45;18.27;;;1.60;99.90;;;;;;5154559;27;20508;-74
2023/03/10 08:13:38;;;;;;;27.17;17.45;;;1.70;99.90;;;;;;5154303;27;20068;-75
2023/03/10 08:16:05;;;;;;;26.85;19.38;;;1.70;99.90;;;;;;5135784;27;20373;-74
2023/03/10 08:18:31;;;;;;;29.75;20.40;;;1.60;99.90;;;;;;5154360;27;20046;-75
2023/03/10 08:20:58;;;;;;;28.52;21.30;;;1.60;99.90;;;;;;5136198;27;20107;-75
2023/03/10 08:23:24;;;;;;;36.05;22.60;;;1.60;99.90;;;;;;5135753;27;20051;-75
2023/03/10 08:25:51;;;;;;;32.15;21.02;;;1.60;99.90;;;;;;5154352;27;20049;-75
2023/03/10 08:28:16;;;;;;;29.17;21.08;;;2.40;99.90;;;;;;5154142;27;20042;-74
2023/03/10 08:30:42;;;;;;;30.48;22.73;;;1.60;99.90;;;;;;5153876;27;20114;-74
2023/03/10 08:33:08;;;;;;;33.15;22.48;;;1.60;99.90;;;;;;5154188;27;20043;-74
2023/03/10 08:35:35;;;;;;;35.45;21.13;;;1.60;99.90;;;;;;5154246;27;20050;-74
2023/03/10 08:38:03;;;;;;;28.55;20.75;;;1.60;99.90;;;;;;5154178;27;20420;-75
2023/03/10 08:40:28;;;;;;;34.17;23.88;;;2.10;99.90;;;;;;5153960;27;20038;-74
2023/03/10 08:42:54;;;;;;;36.78;25.20;;;1.60;99.90;;;;;;5154140;27;20046;-74
2023/03/10 08:45:20;;;;;;;35.03;24.00;;;1.60;99.90;;;;;;5154709;27;20054;-74
2023/03/10 08:47:46;;;;;;;32.08;22.35;;;1.70;99.90;;;;;;5135521;27;20531;-73
2023/03/10 08:50:12;;;;;;;55.42;30.02;;;1.90;99.90;;;;;;5118979;27;20395;-74
2023/03/10 08:52:38;;;;;;;37.50;23.98;;;2.20;99.90;;;;;;5135723;27;20039;-73
2023/03/10 08:55:04;;;;;;;34.67;25.10;;;1.90;99.90;;;;;;5136323;27;20061;-73
2023/03/10 08:57:30;;;;;;;35.70;24.33;;;1.60;99.90;;;;;;5137700;27;20119;-74
2023/03/10 08:59:56;;;;;;;39.13;25.45;;;1.60;99.90;;;;;;5158690;27;20117;-72
2023/03/10 09:02:22;;;;;;;39.65;24.95;;;1.60;99.90;;;;;;5158904;27;20519;-73
2023/03/10 09:04:49;;;;;;;34.35;23.95;;;2.30;99.90;;;;;;5158276;27;20113;-73
2023/03/10 09:07:15;;;;;;;40.15;24.08;;;1.60;99.90;;;;;;5157914;27;20050;-73
2023/03/10 09:09:41;;;;;;;37.20;25.50;;;1.60;99.90;;;;;;5139304;27;20038;-73
2023/03/10 09:12:08;;;;;;;37.47;22.88;;;1.60;99.90;;;;;;5139492;27;20050;-73
2023/03/10 09:14:35;;;;;;;37.80;24.27;;;1.60;99.90;;;;;;5158064;27;20494;-73
2023/03/10 09:17:00;;;;;;;35.10;23.42;;;1.60;99.90;;;;;;5157965;27;20056;-73
2023/03/10 09:19:26;;;;;;;32.13;21.98;;;1.80;99.90;;;;;;5157892;27;20126;-73
2023/03/10 09:21:52;;;;;;;36.17;22.38;;;1.60;99.90;;;;;;5157992;27;20049;-74
2023/03/10 09:24:18;;;;;;;35.70;23.10;;;2.30;99.90;;;;;;5157487;27;20050;-74
2023/03/10 09:26:44;;;;;;;34.08;24.08;;;2.40;99.90;;;;;;5158065;27;20121;-74
2023/03/10 09:29:10;;;;;;;34.33;22.23;;;1.80;99.90;;;;;;5139172;27;20087;-74
2023/03/10 09:31:38;;;;;;;32.42;22.00;;;1.60;99.90;;;;;;5139287;27;20038;-74
2023/03/10 09:34:05;;;;;;;36.60;23.10;;;1.60;99.90;;;;;;5157888;27;20043;-71
2023/03/10 09:36:31;;;;;;;36.00;24.17;;;2.10;99.90;;;;;;5157455;27;20134;-73
2023/03/10 09:38:58;;;;;;;36.70;24.15;;;1.60;99.90;;;;;;5157252;27;20150;-73
2023/03/10 09:41:29;;;;;;;34.75;23.60;;;2.50;99.90;;;;;;5157468;27;20042;-71
2023/03/10 09:44:01;;;;;;;35.63;22.50;;;1.60;99.90;;;;;;5157275;27;20500;-72
2023/03/10 09:46:49;;;;;;;34.45;23.20;;;1.60;99.90;;;;;;5157263;27;20038;-72
2023/03/10 09:49:21;;;;;;;35.50;24.13;;;1.60;99.90;;;;;;5157453;27;20110;-72
2023/03/10 09:51:48;;;;;;;35.83;22.67;;;1.80;99.90;;;;;;5157065;27;20085;-72
2023/03/10 09:54:19;;;;;;;30.15;22.40;;;1.60;99.90;;;;;;5156601;27;20046;-72
2023/03/10 09:56:45;;;;;;;36.35;24.02;;;0.60;99.90;;;;;;5157177;27;20123;-73
2023/03/10 09:59:27;;;;;;;34.40;23.15;;;1.70;99.90;;;;;;5157223;27;20074;-73
2023/03/10 10:01:53;;;;;;;30.20;20.48;;;1.70;99.90;;;;;;5157570;27;20047;-72
2023/03/10 10:04:35;;;;;;;34.20;23.15;;;1.80;99.90;;;;;;5138854;27;20162;-73
2023/03/10 10:07:04;;;;;;;34.45;22.30;;;1.70;99.90;;;;;;5139509;27;20419;-74
2023/03/10 10:09:42;;;;;;;37.28;25.52;;;1.70;99.90;;;;;;5156158;27;20078;-74
2023/03/10 10:12:22;;;;;;;34.25;22.35;;;1.90;99.90;;;;;;5157135;27;20047;-73
2023/03/10 10:14:53;;;;;;;32.90;23.45;;;1.70;99.90;;;;;;5157176;27;20184;-74
2023/03/10 10:17:24;;;;;;;35.97;21.60;;;1.70;99.90;;;;;;5156621;27;20530;-74
2023/03/10 10:19:51;;;;;;;36.92;24.23;;;1.70;99.90;;;;;;5138380;27;20074;-74
2023/03/10 10:22:31;;;;;;;36.45;24.60;;;1.70;99.90;;;;;;5156662;27;20090;-74
2023/03/10 10:25:08;;;;;;;35.50;23.42;;;1.70;99.90;;;;;;5156768;27;20046;-74
2023/03/10 10:27:39;;;;;;;38.17;24.13;;;1.70;99.90;;;;;;5156660;27;20050;-73
2023/03/10 10:30:27;;;;;;;33.53;23.92;;;1.70;99.90;;;;;;5156546;27;20091;-75
2023/03/10 10:33:07;;;;;;;29.35;21.55;;;1.70;99.90;;;;;;5157056;27;20050;-73
2023/03/10 10:35:58;;;;;;;30.77;22.05;;;1.70;99.90;;;;;;5138555;27;20046;-73
2023/03/10 10:38:28;;;;;;;31.48;23.40;;;1.60;99.90;;;;;;5138719;27;20095;-73
2023/03/10 10:41:14;;;;;;;30.15;19.95;;;2.00;99.90;;;;;;5156184;27;20126;-74
2023/03/10 10:43:42;;;;;;;32.92;23.65;;;1.60;99.90;;;;;;5156629;27;20095;-74
2023/03/10 10:46:09;;;;;;;35.58;22.77;;;1.60;99.90;;;;;;5138568;27;20050;-74
2023/03/10 10:48:44;;;;;;;29.55;21.88;;;1.60;99.90;;;;;;5155993;27;20039;-75
2023/03/10 10:51:28;;;;;;;28.70;20.95;;;2.20;99.90;;;;;;5156047;27;20057;-74
2023/03/10 10:54:27;;;;;;;29.33;20.98;;;1.60;99.90;;;;;;5156177;27;20050;-75
2023/03/10 10:56:55;;;;;;;33.65;23.58;;;1.60;99.90;;;;;;5138482;27;20054;-75
2023/03/10 10:59:41;;;;;;;35.10;23.58;;;1.60;99.90;;;;;;5155804;27;20038;-74
2023/03/10 11:02:24;;;;;;;31.10;22.13;;;1.60;99.90;;;;;;5155181;27;20054;-75
2023/03/10 11:04:49;;;;;;;33.40;23.15;;;1.60;99.90;;;;;;5155911;27;20065;-75
2023/03/10 11:07:22;;;;;;;31.38;20.60;;;1.60;99.90;;;;;;5137101;27;20478;-76
2023/03/10 11:09:48;;;;;;;30.40;20.63;;;1.70;99.90;;;;;;5120389;27;20046;-75
2023/03/10 11:12:37;;;;;;;34.60;22.50;;;1.60;99.90;;;;;;5155504;27;20129;-75
2023/03/10 11:15:22;;;;;;;31.40;21.52;;;1.60;99.90;;;;;;5137239;27;20039;-74
2023/03/10 11:17:59;;;;;;;29.52;21.58;;;1.60;99.90;;;;;;5155806;27;20107;-75
2023/03/10 11:21:01;;;;;;;31.58;21.98;;;1.60;99.90;;;;;;5155559;27;20035;-74
2023/03/10 11:23:35;;;;;;;31.38;21.77;;;1.60;99.90;;;;;;5155337;27;20074;-74
2023/03/10 11:26:38;;;;;;;33.67;22.50;;;1.60;99.90;;;;;;5155683;27;20038;-74
2023/03/10 11:29:27;;;;;;;34.30;21.73;;;1.60;99.90;;;;;;5155710;27;20409;-74
2023/03/10 11:32:17;;;;;;;36.15;24.88;;;1.60;99.90;;;;;;5119793;27;20042;-74
2023/03/10 11:34:49;;;;;;;30.45;22.55;;;1.60;99.90;;;;;;5155253;27;20042;-74
2023/03/10 11:37:25;;;;;;;32.20;22.00;;;1.50;99.90;;;;;;5155574;27;20053;-75
2023/03/10 11:40:23;;;;;;;28.75;22.15;;;2.10;99.90;;;;;;5154970;27;20050;-75
2023/03/10 11:43:07;;;;;;;32.95;23.20;;;1.60;99.90;;;;;;5155046;27;20078;-74
2023/03/10 11:45:45;;;;;;;32.70;22.25;;;1.60;99.90;;;;;;5155159;27;20057;-75
2023/03/10 11:48:36;;;;;;;29.85;21.38;;;1.60;99.90;;;;;;5155419;27;20074;-75
2023/03/10 11:51:03;;;;;;;30.70;21.17;;;1.50;99.90;;;;;;5154951;27;20039;-74
2023/03/10 11:53:41;;;;;;;35.40;23.33;;;1.60;99.90;;;;;;5155226;27;20059;-73
2023/03/10 11:56:10;;;;;;;32.95;23.63;;;1.50;99.90;;;;;;5154823;27;20051;-76
2023/03/10 11:58:58;;;;;;;29.73;20.90;;;1.80;99.90;;;;;;5154480;27;20078;-74
2023/03/10 12:01:45;;;;;;;32.60;22.17;;;1.50;99.90;;;;;;5154561;27;20435;-74
2023/03/10 12:04:36;;;;;;;34.90;20.63;;;1.50;99.90;;;;;;5154582;27;20062;-74
2023/03/10 12:07:30;;;;;;;30.35;19.65;;;1.50;99.90;;;;;;5155190;27;20035;-74
2023/03/10 12:10:02;;;;;;;33.88;23.30;;;1.40;99.90;;;;;;5154459;27;20046;-76
2023/03/10 12:12:32;;;;;;;32.73;23.10;;;1.50;99.90;;;;;;5136222;27;20470;-73
2023/03/10 12:15:01;;;;;;;31.15;22.30;;;1.50;99.90;;;;;;5154483;27;20051;-75
2023/03/10 12:17:27;;;;;;;33.17;22.30;;;1.50;99.90;;;;;;5135892;27;20103;-73
2023/03/10 12:20:11;;;;;;;35.20;23.13;;;1.40;99.90;;;;;;5135772;27;20424;-72
2023/03/10 12:22:42;;;;;;;31.55;21.90;;;2.60;99.90;;;;;;5154670;27;20042;-74
2023/03/10 12:25:29;;;;;;;30.60;21.85;;;1.60;99.90;;;;;;5154370;27;20099;-72
2023/03/10 12:28:24;;;;;;;27.00;21.42;;;1.40;99.90;;;;;;5154234;27;20129;-73
2023/03/10 12:30:58;;;;;;;37.33;24.38;;;1.30;99.90;;;;;;5154545;27;20039;-74
2023/03/10 12:33:29;;;;;;;32.65;24.00;;;1.30;99.90;;;;;;5135564;27;20111;-73
2023/03/10 12:36:01;;;;;;;34.80;21.85;;;1.30;99.90;;;;;;5154201;27;20129;-74
2023/03/10 12:39:00;;;;;;;33.03;24.10;;;1.30;99.90;;;;;;5154021;27;20046;-73
2023/03/10 12:41:25;;;;;;;33.30;25.15;;;1.30;99.90;;;;;;5154315;27;20046;-73
2023/03/10 12:44:05;;;;;;;37.75;26.17;;;1.40;99.90;;;;;;5154043;27;20042;-74
2023/03/10 12:46:45;;;;;;;33.97;23.60;;;1.40;99.90;;;;;;5154169;27;20093;-72